Flight Track Log - Related Links

Times and Time Zones

All times are in EDT time to prevent confusion due to time zone crossing. See the RAX81 flight status page for this flight to view local times or setup timezone preferences in your user account.

Time Position Orientation Groundspeed Altitude Reporting Facility
EDT Latitude Longitude Course Direction KTS MPH feet Rate Location/Type
Fri 01:41:13 AM 33.7833 -84.4833 68° East 156 180 1,900  Level Atlanta TRACON
Fri 01:42:13 AM 33.8000 -84.4333 68° East 159 183 3,400 1,556 Climbing Atlanta TRACON
Fri 01:43:01 AM 33.8333 -84.4000 40° Northeast 157 181 4,700 1,611 Climbing Atlanta TRACON
Fri 01:44:01 AM 33.8500 -84.3500 68° East 163 188 6,300 1,550 Climbing Atlanta TRACON
Fri 01:45:01 AM 33.8667 -84.3000 68° East 162 186 7,800 1,500 Climbing Atlanta TRACON
Fri 01:46:01 AM 33.9000 -84.2667 40° Northeast 160 184 9,300 1,224 Climbing Atlanta TRACON
Fri 01:48:22 AM 33.9528 -84.1514 61° Northeast 181 208 11,900 1,134 Climbing Atlanta Center
Fri 01:49:22 AM 33.9819 -84.1064 52° Northeast 176 203 13,100 1,050 Climbing Atlanta Center
Fri 01:50:22 AM 34.0156 -84.0564 51° Northeast 176 203 14,000 900 Climbing Atlanta Center
Fri 01:51:22 AM 34.0511 -84.0086 48° Northeast 176 203 14,900 900 Climbing Atlanta Center
Fri 01:52:22 AM 34.0864 -83.9661 45° Northeast 176 203 15,800 850 Climbing Atlanta Center
Fri 01:53:22 AM 34.1219 -83.9208 47° Northeast 187 215 16,600 750 Climbing Atlanta Center
Fri 01:54:22 AM 34.1572 -83.8706 50° Northeast 187 215 17,300 600 Climbing Atlanta Center
Fri 01:55:22 AM 34.1906 -83.8178 53° Northeast 187 215 17,800 600 Climbing Atlanta Center
Fri 01:56:22 AM 34.2261 -83.7675 49° Northeast 187 215 18,500 700 Climbing Atlanta Center
Fri 01:57:22 AM 34.2614 -83.7172 50° Northeast 187 215 19,200 650 Climbing Atlanta Center
Fri 01:58:22 AM 34.2947 -83.6667 51° Northeast 187 215 19,800 600 Climbing Atlanta Center
Fri 01:59:22 AM 34.3300 -83.6161 50° Northeast 187 215 20,400 550 Climbing Atlanta Center
Fri 02:00:22 AM 34.3631 -83.5708 49° Northeast 187 215 20,900 550 Climbing Atlanta Center
Fri 02:01:22 AM 34.3964 -83.5203 51° Northeast 192 221 21,500 500 Climbing Atlanta Center
Fri 02:02:22 AM 34.4336 -83.4697 48° Northeast 192 221 21,900 400 Climbing Atlanta Center
Fri 02:03:22 AM 34.4689 -83.4114 54° Northeast 197 227 22,300 350 Climbing Atlanta Center
Fri 02:04:22 AM 34.5042 -83.3583 51° Northeast 203 234 22,600 350 Climbing Atlanta Center
Fri 02:05:22 AM 34.5414 -83.3000 52° Northeast 203 234 23,000 350 Climbing Atlanta Center
Fri 02:06:22 AM 34.5806 -83.2442 50° Northeast 203 234 23,300 300 Climbing Atlanta Center
Fri 02:07:22 AM 34.6239 -83.1856 48° Northeast 209 241 23,600 300 Climbing Atlanta Center
Fri 02:08:22 AM 34.6653 -83.1322 47° Northeast 209 241 23,900 350 Climbing Atlanta Center
Fri 02:09:22 AM 34.7047 -83.0761 49° Northeast 214 246 24,300 350 Climbing Atlanta Center
Fri 02:10:22 AM 34.7397 -83.0228 51° Northeast 209 241 24,600 300 Climbing Atlanta Center
Fri 02:11:22 AM 34.7767 -82.9667 51° Northeast 215 247 24,900 250 Climbing Atlanta Center
Fri 02:12:22 AM 34.8158 -82.9131 48° Northeast 209 241 25,100 100 Climbing Atlanta Center
Fri 02:13:22 AM 34.8489 -82.8644 50° Northeast 204 235 25,100  Level Atlanta Center
Fri 02:14:22 AM 34.8878 -82.8031 52° Northeast 213 245 25,100  Level Atlanta Center
Fri 02:15:22 AM 34.9289 -82.7442 50° Northeast 219 252 25,100  Level Atlanta Center
Fri 02:16:22 AM 34.9700 -82.6853 50° Northeast 219 252 25,100  Level Atlanta Center
Fri 02:17:22 AM 35.0092 -82.6239 52° Northeast 219 252 25,100  Level Atlanta Center
Fri 02:18:22 AM 35.0522 -82.5672 47° Northeast 219 252 25,100  Level Atlanta Center
Fri 02:19:22 AM 35.0911 -82.5081 51° Northeast 219 252 25,100  Level Atlanta Center
Fri 02:20:22 AM 35.1342 -82.4489 48° Northeast 225 259 25,100  Level Atlanta Center
Fri 02:21:22 AM 35.1731 -82.3847 53° Northeast 225 259 25,100  Level Atlanta Center
Fri 02:22:22 AM 35.2181 -82.3253 47° Northeast 225 259 25,100 -50 Level Atlanta Center
Fri 02:23:22 AM 35.2569 -82.2658 51° Northeast 225 259 25,000 -50 Descending Atlanta Center
Fri 02:24:22 AM 35.3019 -82.2014 49° Northeast 225 259 25,000  Level Atlanta Center
Fri 02:25:22 AM 35.3447 -82.1394 50° Northeast 230 265 25,000  Level Atlanta Center
Fri 02:26:22 AM 35.3833 -82.0825 50° Northeast 225 259 25,000  Level Atlanta Center
Fri 02:27:22 AM 35.4242 -82.0253 49° Northeast 219 252 25,000  Level Atlanta Center
Fri 02:28:22 AM 35.4650 -81.9631 51° Northeast 224 258 25,000  Level Atlanta Center
Fri 02:29:22 AM 35.5056 -81.9033 50° Northeast 224 258 25,000  Level Atlanta Center
Fri 02:30:22 AM 35.5464 -81.8436 50° Northeast 219 252 25,000  Level Atlanta Center
Fri 02:31:22 AM 35.5869 -81.7839 50° Northeast 224 258 25,000  Level Atlanta Center
Fri 02:32:22 AM 35.6275 -81.7239 50° Northeast 229 264 25,000  Level Atlanta Center
Fri 02:33:22 AM 35.6642 -81.6692 50° Northeast 229 264 25,000  Level Atlanta Center
Fri 02:34:22 AM 35.7044 -81.6067 52° Northeast 224 258 25,000  Level Atlanta Center
Fri 02:35:22 AM 35.7453 -81.5492 49° Northeast 224 258 25,000  Level Atlanta Center
Fri 02:36:22 AM 35.7856 -81.4892 50° Northeast 224 258 25,000  Level Atlanta Center
Fri 02:37:22 AM 35.8281 -81.4211 52° Northeast 224 258 25,000  Level Atlanta Center
Fri 02:38:22 AM 35.8728 -81.3633 46° Northeast 224 258 25,000  Level Atlanta Center
Fri 02:39:22 AM 35.9108 -81.3006 53° Northeast 224 258 25,000  Level Atlanta Center
Fri 02:40:22 AM 35.9514 -81.2403 50° Northeast 224 258 25,000  Level Atlanta Center
Fri 02:41:22 AM 35.9936 -81.1797 49° Northeast 224 258 25,000  Level Atlanta Center
Fri 02:42:22 AM 36.0319 -81.1219 51° Northeast 224 258 25,000  Level Atlanta Center
Fri 02:43:22 AM 36.0681 -81.0667 51° Northeast 224 258 25,000  Level Atlanta Center
Fri 02:44:22 AM 36.1106 -81.0033 50° Northeast 230 265 25,000  Level Atlanta Center
Fri 02:45:22 AM 36.1506 -80.9453 50° Northeast 230 265 25,000  Level Atlanta Center
Fri 02:46:22 AM 36.1908 -80.8819 52° Northeast 230 265 25,000  Level Atlanta Center
Fri 02:47:22 AM 36.2331 -80.8186 50° Northeast 230 265 25,000  Level Atlanta Center
Fri 02:49:23 AM 36.3164 -80.6911 51° Northeast 236 272 25,000  Level Washington Center
Fri 02:50:20 AM 36.3586 -80.6319 48° Northeast 236 272 25,000  Level Washington Center
Fri 02:51:23 AM 36.3986 -80.5725 50° Northeast 226 260 25,000  Level Washington Center
Fri 02:52:20 AM 36.4389 -80.5106 51° Northeast 226 260 25,000  Level Washington Center
Fri 02:53:20 AM 36.4786 -80.4536 49° Northeast 226 260 25,000  Level Washington Center
Fri 02:54:21 AM 36.5122 -80.4014 51° Northeast 221 254 25,000  Level Washington Center
Fri 02:55:21 AM 36.5519 -80.3469 48° Northeast 221 254 25,000  Level Washington Center
Fri 02:56:20 AM 36.5981 -80.2850 47° Northeast 221 254 25,000  Level Washington Center
Fri 02:57:20 AM 36.6422 -80.2256 47° Northeast 226 260 25,000  Level Washington Center
Fri 02:58:20 AM 36.6842 -80.1686 47° Northeast 226 260 25,000  Level Washington Center
Fri 02:59:20 AM 36.7281 -80.1117 46° Northeast 226 260 25,000  Level Washington Center
Fri 03:00:20 AM 36.7675 -80.0594 47° Northeast 226 260 25,000  Level Washington Center
Fri 03:01:20 AM 36.8114 -80.0022 46° Northeast 226 260 25,000  Level Washington Center
Fri 03:02:20 AM 36.8531 -79.9422 49° Northeast 226 260 25,000  Level Washington Center
Fri 03:03:20 AM 36.9014 -79.8803 46° Northeast 226 260 25,000  Level Washington Center
Fri 03:04:20 AM 36.9450 -79.8228 46° Northeast 226 260 25,000  Level Washington Center
Fri 03:05:20 AM 36.9886 -79.7681 45° Northeast 226 260 25,000  Level Washington Center
Fri 03:06:20 AM 37.0322 -79.7131 45° Northeast 221 254 25,000  Level Washington Center
Fri 03:07:20 AM 37.0717 -79.6606 47° Northeast 215 247 25,000  Level Washington Center
Fri 03:08:20 AM 37.1133 -79.6056 46° Northeast 215 247 25,000  Level Washington Center
Fri 03:09:22 AM 37.1567 -79.5503 45° Northeast 215 247 25,000  Level Washington Center
Fri 03:10:21 AM 37.2067 -79.4903 44° Northeast 215 247 25,000  Level Washington Center
Fri 03:11:20 AM 37.2522 -79.4353 44° Northeast 215 247 25,000 -50 Level Washington Center
Fri 03:12:20 AM 37.2936 -79.3800 47° Northeast 215 247 24,900 -50 Descending Washington Center
Fri 03:13:20 AM 37.3350 -79.3297 44° Northeast 215 247 24,900  Level Washington Center
Fri 03:14:20 AM 37.3764 -79.2717 48° Northeast 215 247 24,900  Level Washington Center
Fri 03:15:22 AM 37.4178 -79.2161 47° Northeast 215 247 24,900 50 Level Washington Center
Fri 03:16:20 AM 37.4656 -79.1531 46° Northeast 215 247 25,000  Climbing Washington Center
Fri 03:17:20 AM 37.5069 -79.0947 48° Northeast 215 247 24,900 -50 Descending Washington Center
Fri 03:18:20 AM 37.5503 -79.0339 48° Northeast 215 247 24,900  Level Washington Center
Fri 03:19:20 AM 37.5872 -78.9831 47° Northeast 215 247 24,900  Level Washington Center
Fri 03:20:20 AM 37.6306 -78.9247 47° Northeast 215 247 24,900  Level Washington Center
Fri 03:21:20 AM 37.6739 -78.8636 48° Northeast 215 247 24,900  Level Washington Center
Fri 03:22:20 AM 37.7172 -78.8053 47° Northeast 215 247 24,900 -150 Level Washington Center
Fri 03:23:20 AM 37.7672 -78.7364 47° Northeast 221 254 24,600 -496 Descending Washington Center
Fri 03:24:21 AM 37.8128 -78.6672 50° Northeast 238 274 23,900 -650 Descending Washington Center
Fri 03:25:20 AM 37.8625 -78.5983 48° Northeast 253 291 23,300 -454 Descending Washington Center
Fri 03:26:20 AM 37.9058 -78.5317 51° Northeast 265 305 23,000 -150 Descending Washington Center
Fri 03:27:20 AM 37.9553 -78.4650 47° Northeast 259 298 23,000  Level Washington Center
Fri 03:28:20 AM 38.0006 -78.4008 48° Northeast 247 284 23,000  Level Washington Center
Fri 03:29:20 AM 38.0417 -78.3364 51° Northeast 241 277 23,000  Level Washington Center
Fri 03:30:20 AM 38.0828 -78.2747 50° Northeast 236 272 23,000  Level Washington Center
Fri 03:31:20 AM 38.1258 -78.2128 49° Northeast 230 265 23,000  Level Washington Center
Fri 03:32:20 AM 38.1689 -78.1483 50° Northeast 230 265 23,000  Level Washington Center
Fri 03:33:22 AM 38.2097 -78.0889 49° Northeast 230 265 23,000  Level Washington Center
Fri 03:34:20 AM 38.2447 -78.0186 58° Northeast 230 265 23,000  Level Washington Center
Fri 03:35:20 AM 38.2672 -77.9375 71° East 230 265 23,000  Level Washington Center
Fri 03:36:22 AM 38.2956 -77.8642 64° Northeast 230 265 23,000  Level Washington Center
Fri 03:37:22 AM 38.3242 -77.7911 63° Northeast 230 265 23,000  Level Washington Center
Fri 03:38:23 AM 38.3525 -77.7178 64° Northeast 230 265 23,000  Level Washington Center
Fri 03:39:20 AM 38.3808 -77.6444 64° Northeast 230 265 23,000  Level Washington Center
Fri 03:40:22 AM 38.4114 -77.5711 62° Northeast 230 265 23,000 -397 Level Washington Center
Fri 03:41:21 AM 38.4375 -77.4922 67° East 235 270 22,200 -1,068 Descending Washington Center
Fri 03:42:20 AM 38.4683 -77.4003 67° East 252 290 20,900 -1,272 Descending Washington Center
Fri 03:44:25 AM 38.5500 -77.2000 62° Northeast 292 336 18,300 -1,168 Descending Potomac TRACON
Fri 03:45:25 AM 38.5833 -77.1000 67° East 290 334 17,300 -1,150 Descending Potomac TRACON
Fri 03:46:25 AM 38.6167 -77.0000 67° East 288 331 16,000 -1,250 Descending Potomac TRACON
Fri 03:47:25 AM 38.6500 -76.9167 63° Northeast 285 328 14,800 -1,200 Descending Potomac TRACON
Fri 03:48:25 AM 38.6667 -76.8167 78° East 280 322 13,600 -1,500 Descending Potomac TRACON
Fri 03:49:25 AM 38.7000 -76.7333 63° Northeast 269 310 11,800 -1,700 Descending Potomac TRACON
Fri 03:50:25 AM 38.7667 -76.7000 21° North 249 287 10,200 -1,750 Descending Potomac TRACON
Fri 03:51:25 AM 38.8333 -76.6833 11° North 244 281 8,300 -1,800 Descending Potomac TRACON
Fri 03:52:25 AM 38.9000 -76.6667 11° North 235 270 6,600 -1,750 Descending Potomac TRACON
Fri 03:53:25 AM 38.9667 -76.6500 11° North 233 268 4,800 -1,750 Descending Potomac TRACON
Fri 03:54:25 AM 39.0333 -76.6333 11° North 227 261 3,100 -1,550 Descending Potomac TRACON
Fri 03:55:25 AM 39.0833 -76.6333 360° North 216 249 1,700 -950 Descending Potomac TRACON
Fri 03:56:25 AM 39.1333 -76.6167 14° North 172 198 1,200 -650 Descending Potomac TRACON
Fri 03:57:25 AM 39.1667 -76.6500 322° Northwest 121 139 400 -800 Descending Potomac TRACON
Fri 03:59:00 AM 39.1667 -76.6667 11° North  Level FlightAware Approximate
Fri 04:06:00 AM 39.1754 -76.6683 11° North  Level Estimated
Fri 04:07:00 AM 39.1754 -76.6683 11° North  Level Estimated
Fri 04:08:00 AM 39.1754 -76.6683 11° North  Level Estimated

Login

Don't have an account? Register now (free) for customized features, flight alerts, and more!